createdAt,value
2017-01-16T00:00:10.691Z,-0.15
2017-01-16T00:00:52.379Z,-0.17
2017-01-16T00:01:33.033Z,-0.15
2017-01-16T00:02:13.671Z,-0.17
2017-01-16T00:02:54.326Z,-0.15
2017-01-16T00:03:34.973Z,-0.1
2017-01-16T00:04:15.640Z,-0.11
2017-01-16T00:04:56.306Z,-0.1
2017-01-16T00:05:36.968Z,-0.18
2017-01-16T00:06:17.568Z,-0.17
2017-01-16T00:06:58.241Z,-0.14
2017-01-16T00:07:38.916Z,-0.13
2017-01-16T00:08:19.549Z,-0.15
2017-01-16T00:09:00.220Z,-0.18
2017-01-16T00:09:40.860Z,-0.14
2017-01-16T00:10:21.514Z,-0.26
2017-01-16T00:11:02.159Z,-0.17
2017-01-16T00:11:42.827Z,-0.14
2017-01-16T00:12:23.467Z,-0.1
2017-01-16T00:13:04.117Z,-0.21
2017-01-16T00:13:44.771Z,-0.13
2017-01-16T00:14:25.362Z,-0.13
2017-01-16T00:15:05.955Z,-0.14
2017-01-16T00:15:46.522Z,-0.11
2017-01-16T00:16:27.185Z,-0.21
2017-01-16T00:17:07.777Z,-0.2
2017-01-16T00:17:48.361Z,-0.17
2017-01-16T00:18:28.930Z,-0.17
2017-01-16T00:19:09.594Z,-0.2
2017-01-16T00:19:50.237Z,-0.13
2017-01-16T00:20:30.887Z,-0.29
2017-01-16T00:21:12.567Z,-0.18
2017-01-16T00:21:53.241Z,-0.23
2017-01-16T00:22:33.857Z,-0.13
2017-01-16T00:23:14.523Z,-0.15
2017-01-16T00:23:55.198Z,-0.21
2017-01-16T00:24:35.845Z,-0.14
2017-01-16T00:25:16.499Z,-0.2
2017-01-16T00:25:57.134Z,-0.14
2017-01-16T00:26:37.802Z,-0.15
2017-01-16T00:27:18.443Z,-0.15
2017-01-16T00:27:59.093Z,-0.18
2017-01-16T00:28:39.763Z,-0.14
2017-01-16T00:29:20.418Z,-0.18
2017-01-16T00:30:01.061Z,-0.21
2017-01-16T00:30:41.712Z,-0.2
2017-01-16T00:31:22.365Z,-0.23
2017-01-16T00:32:04.324Z,-0.21
2017-01-16T00:32:44.676Z,-0.18
2017-01-16T00:33:25.332Z,-0.23
2017-01-16T00:34:05.985Z,-0.18
2017-01-16T00:34:46.628Z,-0.14
2017-01-16T00:35:27.289Z,-0.18
2017-01-16T00:36:07.939Z,-0.13
2017-01-16T00:36:48.594Z,-0.25
2017-01-16T00:37:29.247Z,-0.21
2017-01-16T00:38:09.914Z,-0.23
2017-01-16T00:38:50.540Z,-0.26
2017-01-16T00:39:31.200Z,-0.2
2017-01-16T00:40:12.040Z,-0.2
2017-01-16T00:40:52.958Z,-0.21
2017-01-16T00:41:33.656Z,-0.2
2017-01-16T00:42:14.252Z,-0.17
2017-01-16T00:42:55.039Z,-0.17
2017-01-16T00:43:35.889Z,-0.23
2017-01-16T00:44:16.591Z,-0.14
2017-01-16T00:44:57.264Z,-0.13
2017-01-16T00:45:37.916Z,-0.2
2017-01-16T00:46:18.696Z,-0.18
2017-01-16T00:46:59.412Z,-0.2
2017-01-16T00:47:40.200Z,-0.18
2017-01-16T00:48:20.920Z,-0.13
2017-01-16T00:49:01.595Z,-0.17
2017-01-16T00:49:42.326Z,-0.23
2017-01-16T00:50:23.073Z,-0.18
2017-01-16T00:51:03.701Z,-0.18
2017-01-16T00:51:44.326Z,-0.18
2017-01-16T00:52:25.399Z,-0.2
2017-01-16T00:53:06.215Z,-0.26
2017-01-16T00:53:46.885Z,-0.31
2017-01-16T00:54:27.618Z,-0.23
2017-01-16T00:55:08.393Z,-0.26
2017-01-16T00:55:49.141Z,-0.21
2017-01-16T00:56:30.093Z,-0.21
2017-01-16T00:57:10.756Z,-0.23
2017-01-16T00:57:51.415Z,-0.21
2017-01-16T00:58:32.049Z,-0.18
2017-01-16T00:59:12.623Z,-0.38
2017-01-16T00:59:53.265Z,-0.32
2017-01-16T01:00:33.902Z,-0.39
2017-01-16T01:01:14.491Z,-0.38
2017-01-16T01:01:55.122Z,-0.36
2017-01-16T01:02:35.988Z,-0.47
2017-01-16T01:03:16.648Z,-0.43
2017-01-16T01:03:57.401Z,-0.47
2017-01-16T01:04:38.044Z,-0.46
2017-01-16T01:05:18.749Z,-0.52
2017-01-16T01:05:59.450Z,-0.54
2017-01-16T01:06:40.154Z,-0.61
2017-01-16T01:07:20.942Z,-0.52
2017-01-16T01:08:01.600Z,-0.52
2017-01-16T01:08:42.262Z,-0.54
2017-01-16T01:09:22.919Z,-0.53
2017-01-16T01:10:03.596Z,-0.64
2017-01-16T01:10:44.231Z,-0.65
2017-01-16T01:11:24.887Z,-0.59
2017-01-16T01:12:05.543Z,-0.61
2017-01-16T01:12:46.193Z,-0.65
2017-01-16T01:13:26.837Z,-0.57
2017-01-16T01:14:07.494Z,-0.57
2017-01-16T01:14:48.145Z,-0.62
2017-01-16T01:15:28.867Z,-0.65
2017-01-16T01:16:09.446Z,-0.64
2017-01-16T01:16:50.114Z,-0.67
2017-01-16T01:17:30.754Z,-0.64
2017-01-16T01:18:11.405Z,-0.71
2017-01-16T01:18:52.063Z,-0.74
2017-01-16T01:19:32.724Z,-0.67
2017-01-16T01:20:13.364Z,-0.64
2017-01-16T01:20:54.053Z,-0.64
2017-01-16T01:21:34.755Z,-0.68
2017-01-16T01:22:15.419Z,-0.65
2017-01-16T01:22:57.007Z,-0.7
2017-01-16T01:23:37.669Z,-0.7
2017-01-16T01:24:18.289Z,-0.65
2017-01-16T01:24:58.901Z,-0.68
2017-01-16T01:25:39.515Z,-0.67
2017-01-16T01:26:20.148Z,-0.72
2017-01-16T01:27:00.726Z,-0.64
2017-01-16T01:27:41.372Z,-0.68
2017-01-16T01:28:22.002Z,-0.7
2017-01-16T01:29:02.568Z,-0.72
2017-01-16T01:29:43.223Z,-0.72
2017-01-16T01:30:23.871Z,-0.7
2017-01-16T01:31:15.300Z,-0.68
2017-01-16T01:31:55.941Z,-0.68
2017-01-16T01:32:36.586Z,-0.7
2017-01-16T01:33:17.235Z,-0.62
2017-01-16T01:33:57.914Z,-0.68
2017-01-16T01:34:38.550Z,-0.65
2017-01-16T01:35:19.182Z,-0.72
2017-01-16T01:35:59.854Z,-0.7
2017-01-16T01:36:40.510Z,-0.67
2017-01-16T01:37:21.161Z,-0.7
2017-01-16T01:38:01.871Z,-0.68
2017-01-16T01:38:42.563Z,-0.68
2017-01-16T01:39:23.222Z,-0.7
2017-01-16T01:40:03.891Z,-0.64
2017-01-16T01:40:44.591Z,-0.64
2017-01-16T01:41:25.186Z,-0.68
2017-01-16T01:42:05.832Z,-0.72
2017-01-16T01:42:46.496Z,-0.64
2017-01-16T01:43:27.131Z,-0.67
2017-01-16T01:44:07.774Z,-0.64
2017-01-16T01:44:48.442Z,-0.62
2017-01-16T01:45:29.107Z,-0.64
2017-01-16T01:46:09.751Z,-0.64
2017-01-16T01:46:50.395Z,-0.61
2017-01-16T01:47:31.069Z,-0.61
2017-01-16T01:48:11.767Z,-0.65
2017-01-16T01:48:52.367Z,-0.57
2017-01-16T01:49:33.052Z,-0.59
2017-01-16T01:50:13.657Z,-0.65
2017-01-16T01:50:54.236Z,-0.64
2017-01-16T01:51:34.874Z,-0.61
2017-01-16T01:52:15.580Z,-0.64
2017-01-16T01:52:56.261Z,-0.62
2017-01-16T01:53:36.827Z,-0.57
2017-01-16T01:54:17.480Z,-0.61
2017-01-16T01:54:58.132Z,-0.61
2017-01-16T01:55:38.779Z,-0.67
2017-01-16T01:56:19.445Z,-0.61
2017-01-16T01:57:00.097Z,-0.57
2017-01-16T01:57:40.734Z,-0.64
2017-01-16T01:58:21.399Z,-0.57
2017-01-16T01:59:02.055Z,-0.65
2017-01-16T01:59:42.736Z,-0.62
2017-01-16T02:00:23.360Z,-0.61
2017-01-16T02:01:04.011Z,-0.61
2017-01-16T02:01:44.675Z,-0.62
2017-01-16T02:02:25.415Z,-0.5
2017-01-16T02:03:06.294Z,-0.57
2017-01-16T02:03:47.165Z,-0.49
2017-01-16T02:04:27.940Z,-0.53
2017-01-16T02:05:09.863Z,-0.5
2017-01-16T02:05:50.419Z,-0.49
2017-01-16T02:06:31.075Z,-0.53
2017-01-16T02:07:11.922Z,-0.52
2017-01-16T02:07:52.882Z,-0.52
2017-01-16T02:08:33.729Z,-0.52
2017-01-16T02:09:14.674Z,-0.54
2017-01-16T02:09:55.351Z,-0.54
2017-01-16T02:10:36.112Z,-0.53
2017-01-16T02:11:16.777Z,-0.56
2017-01-16T02:11:57.441Z,-0.53
2017-01-16T02:12:38.123Z,-0.54
2017-01-16T02:13:18.732Z,-0.53
2017-01-16T02:13:59.380Z,-0.52
2017-01-16T02:14:40.041Z,-0.57
2017-01-16T02:15:20.718Z,-0.54
2017-01-16T02:16:01.344Z,-0.53
2017-01-16T02:16:41.988Z,-0.57
2017-01-16T02:17:22.649Z,-0.53
2017-01-16T02:18:03.342Z,-0.61
2017-01-16T02:18:43.958Z,-0.56
2017-01-16T02:19:24.592Z,-0.53
2017-01-16T02:20:05.246Z,-0.57
2017-01-16T02:20:45.921Z,-0.59
2017-01-16T02:21:26.557Z,-0.57
2017-01-16T02:22:07.260Z,-0.62
2017-01-16T02:22:47.871Z,-0.62
2017-01-16T02:23:28.541Z,-0.67
2017-01-16T02:24:09.196Z,-0.7
2017-01-16T02:24:49.845Z,-0.68
2017-01-16T02:25:30.472Z,-0.7
2017-01-16T02:26:11.159Z,-0.68
2017-01-16T02:26:51.797Z,-0.62
2017-01-16T02:27:32.441Z,-0.75
2017-01-16T02:28:13.135Z,-0.7
2017-01-16T02:28:53.755Z,-0.75
2017-01-16T02:29:34.339Z,-0.75
2017-01-16T02:30:14.936Z,-0.71
2017-01-16T02:30:55.498Z,-0.72
2017-01-16T02:31:36.167Z,-0.77
2017-01-16T02:32:16.746Z,-0.78
2017-01-16T02:32:57.342Z,-0.77
2017-01-16T02:33:37.934Z,-0.72
2017-01-16T02:34:18.567Z,-0.75
2017-01-16T02:34:59.155Z,-0.85
2017-01-16T02:35:39.752Z,-0.72
2017-01-16T02:36:20.333Z,-0.78
2017-01-16T02:37:00.975Z,-0.8
2017-01-16T02:37:41.557Z,-0.75
2017-01-16T02:38:22.155Z,-0.85
2017-01-16T02:39:02.727Z,-0.78
2017-01-16T02:39:43.381Z,-0.78
2017-01-16T02:40:24.015Z,-0.78
2017-01-16T02:41:04.588Z,-0.82
2017-01-16T02:41:45.231Z,-0.75
2017-01-16T02:42:25.871Z,-0.71
2017-01-16T02:43:06.444Z,-0.78
2017-01-16T02:43:47.095Z,-0.74
2017-01-16T02:44:27.743Z,-0.74
2017-01-16T02:45:08.285Z,-0.72
2017-01-16T02:45:48.930Z,-0.75
2017-01-16T02:46:29.533Z,-0.71
2017-01-16T02:47:10.134Z,-0.78
2017-01-16T02:47:50.701Z,-0.71
2017-01-16T02:48:31.342Z,-0.68
2017-01-16T02:49:11.908Z,-0.74
2017-01-16T02:49:52.497Z,-0.74
2017-01-16T02:50:33.148Z,-0.72
2017-01-16T02:51:13.805Z,-0.74
2017-01-16T02:51:54.762Z,-0.7
2017-01-16T02:52:35.718Z,-0.67
2017-01-16T02:53:16.643Z,-0.67
2017-01-16T02:53:57.232Z,-0.67
2017-01-16T02:54:37.829Z,-0.7
2017-01-16T02:55:18.391Z,-0.7
2017-01-16T02:55:59.048Z,-0.68
2017-01-16T02:56:39.637Z,-0.7
2017-01-16T02:57:20.238Z,-0.65
2017-01-16T02:58:00.805Z,-0.65
2017-01-16T02:58:41.448Z,-0.72
2017-01-16T02:59:22.150Z,-0.72
2017-01-16T03:00:02.712Z,-0.71
2017-01-16T03:00:43.308Z,-0.68
2017-01-16T03:01:23.952Z,-0.7
2017-01-16T03:02:04.516Z,-0.67
2017-01-16T03:02:45.178Z,-0.68
2017-01-16T03:03:25.804Z,-0.67
2017-01-16T03:04:06.361Z,-0.7
2017-01-16T03:04:47.012Z,-0.72
2017-01-16T03:05:27.664Z,-0.74
2017-01-16T03:06:08.254Z,-0.7
2017-01-16T03:06:48.962Z,-0.68
2017-01-16T03:07:29.522Z,-0.7
2017-01-16T03:08:10.071Z,-0.67
2017-01-16T03:08:50.736Z,-0.61
2017-01-16T03:09:31.373Z,-0.7
2017-01-16T03:10:11.925Z,-0.59
2017-01-16T03:10:52.599Z,-0.61
2017-01-16T03:11:33.226Z,-0.59
2017-01-16T03:12:13.797Z,-0.62
2017-01-16T03:12:54.468Z,-0.62
2017-01-16T03:13:35.089Z,-0.71
2017-01-16T03:14:15.664Z,-0.74
2017-01-16T03:14:56.328Z,-0.65
2017-01-16T03:15:37.916Z,-0.64
2017-01-16T03:16:18.515Z,-0.67
2017-01-16T03:16:59.119Z,-0.7
2017-01-16T03:17:39.769Z,-0.68
2017-01-16T03:18:20.429Z,-0.7
2017-01-16T03:19:01.025Z,-0.65
2017-01-16T03:19:41.596Z,-0.62
2017-01-16T03:20:22.248Z,-0.65
2017-01-16T03:21:02.875Z,-0.65
2017-01-16T03:21:43.540Z,-0.61
2017-01-16T03:22:24.105Z,-0.64
2017-01-16T03:23:04.787Z,-0.64
2017-01-16T03:23:45.446Z,-0.59
2017-01-16T03:24:26.047Z,-0.59
2017-01-16T03:25:06.640Z,-0.57
2017-01-16T03:25:47.246Z,-0.67
2017-01-16T03:26:27.853Z,-0.53
2017-01-16T03:27:08.458Z,-0.53
2017-01-16T03:27:49.037Z,-0.64
2017-01-16T03:28:29.700Z,-0.59
2017-01-16T03:29:10.368Z,-0.62
2017-01-16T03:29:50.985Z,-0.56
2017-01-16T03:30:31.646Z,-0.53
2017-01-16T03:31:12.296Z,-0.52
2017-01-16T03:31:52.947Z,-0.57
2017-01-16T03:32:33.613Z,-0.54
2017-01-16T03:33:14.241Z,-0.53
2017-01-16T03:33:54.886Z,-0.5
2017-01-16T03:34:35.484Z,-0.49
2017-01-16T03:35:16.093Z,-0.57
2017-01-16T03:35:56.674Z,-0.56
2017-01-16T03:36:37.300Z,-0.52
2017-01-16T03:37:17.894Z,-0.53
2017-01-16T03:37:58.491Z,-0.59
2017-01-16T03:38:39.053Z,-0.56
2017-01-16T03:39:19.725Z,-0.56
2017-01-16T03:40:00.379Z,-0.54
2017-01-16T03:40:41.030Z,-0.59
2017-01-16T03:41:21.760Z,-0.56
2017-01-16T03:42:02.433Z,-0.53
2017-01-16T03:42:43.072Z,-0.49
2017-01-16T03:43:23.724Z,-0.59
2017-01-16T03:44:04.389Z,-0.54
2017-01-16T03:44:45.048Z,-0.54
2017-01-16T03:45:25.691Z,-0.5
2017-01-16T03:46:06.359Z,-0.53
2017-01-16T03:46:47.013Z,-0.56
2017-01-16T03:47:27.660Z,-0.54
2017-01-16T03:48:08.305Z,-0.54
2017-01-16T03:48:48.958Z,-0.53
2017-01-16T03:49:29.606Z,-0.53
2017-01-16T03:50:10.262Z,-0.59
2017-01-16T03:50:50.920Z,-0.56
2017-01-16T03:51:31.572Z,-0.54
2017-01-16T03:52:12.223Z,-0.53
2017-01-16T03:52:52.888Z,-0.59
2017-01-16T03:53:33.558Z,-0.61
2017-01-16T03:54:14.175Z,-0.57
2017-01-16T03:54:54.846Z,-0.52
2017-01-16T03:55:35.501Z,-0.56
2017-01-16T03:56:16.142Z,-0.56
2017-01-16T03:56:56.804Z,-0.54
2017-01-16T03:57:37.456Z,-0.53
2017-01-16T03:58:18.112Z,-0.59
2017-01-16T03:58:58.744Z,-0.53
2017-01-16T03:59:39.348Z,-0.59
2017-01-16T04:00:19.939Z,-0.53
2017-01-16T04:01:00.519Z,-0.57
2017-01-16T04:01:41.172Z,-0.52
2017-01-16T04:02:21.845Z,-0.59
2017-01-16T04:03:02.446Z,-0.57
2017-01-16T04:03:43.010Z,-0.67
2017-01-16T04:04:23.677Z,-0.59
2017-01-16T04:05:04.319Z,-0.56
2017-01-16T04:05:44.972Z,-0.53
2017-01-16T04:06:25.620Z,-0.62
2017-01-16T04:07:06.285Z,-0.56
2017-01-16T04:07:46.942Z,-0.56
2017-01-16T04:08:27.585Z,-0.62
2017-01-16T04:09:08.210Z,-0.56
2017-01-16T04:09:49.881Z,-0.64
2017-01-16T04:10:31.553Z,-0.61
2017-01-16T04:11:12.206Z,-0.64
2017-01-16T04:11:52.869Z,-0.65
2017-01-16T04:12:33.511Z,-0.62
2017-01-16T04:13:14.175Z,-0.67
2017-01-16T04:13:54.806Z,-0.62
2017-01-16T04:14:35.457Z,-0.57
2017-01-16T04:15:16.014Z,-0.61
2017-01-16T04:15:56.678Z,-0.61
2017-01-16T04:16:37.328Z,-0.64
2017-01-16T04:17:17.869Z,-0.67
2017-01-16T04:17:58.519Z,-0.67
2017-01-16T04:18:39.166Z,-0.56
2017-01-16T04:19:19.722Z,-0.64
2017-01-16T04:20:00.380Z,-0.62
2017-01-16T04:20:41.032Z,-0.64
2017-01-16T04:21:21.692Z,-0.61
2017-01-16T04:22:02.336Z,-0.68
2017-01-16T04:22:43.012Z,-0.59
2017-01-16T04:23:23.665Z,-0.59
2017-01-16T04:24:04.317Z,-0.57
2017-01-16T04:24:44.945Z,-0.61
2017-01-16T04:25:25.600Z,-0.59
2017-01-16T04:26:06.265Z,-0.61
2017-01-16T04:26:46.927Z,-0.59
2017-01-16T04:27:27.559Z,-0.59
2017-01-16T04:28:08.225Z,-0.61
2017-01-16T04:28:48.887Z,-0.64
2017-01-16T04:29:29.529Z,-0.59
2017-01-16T04:30:10.194Z,-0.59
2017-01-16T04:30:50.834Z,-0.64
2017-01-16T04:31:31.491Z,-0.62
2017-01-16T04:32:12.126Z,-0.62
2017-01-16T04:32:52.703Z,-0.64
2017-01-16T04:33:33.341Z,-0.61
2017-01-16T04:34:13.997Z,-0.62
2017-01-16T04:34:54.579Z,-0.67
2017-01-16T04:35:35.212Z,-0.62
2017-01-16T04:36:15.891Z,-0.68
2017-01-16T04:36:56.489Z,-0.57
2017-01-16T04:37:37.053Z,-0.62
2017-01-16T04:38:17.722Z,-0.64
2017-01-16T04:38:58.303Z,-0.64
2017-01-16T04:39:38.901Z,-0.65
2017-01-16T04:40:19.552Z,-0.64
2017-01-16T04:41:00.201Z,-0.65
2017-01-16T04:41:40.855Z,-0.7
2017-01-16T04:42:21.512Z,-0.64
2017-01-16T04:43:02.161Z,-0.65
2017-01-16T04:43:42.817Z,-0.62
2017-01-16T04:44:23.379Z,-0.61
2017-01-16T04:45:04.039Z,-0.67
2017-01-16T04:45:44.612Z,-0.62
2017-01-16T04:46:25.224Z,-0.61
2017-01-16T04:47:05.793Z,-0.65
2017-01-16T04:47:46.445Z,-0.65
2017-01-16T04:48:27.026Z,-0.68
2017-01-16T04:49:07.628Z,-0.65
2017-01-16T04:49:48.186Z,-0.64
2017-01-16T04:50:28.855Z,-0.59
2017-01-16T04:51:09.504Z,-0.68
2017-01-16T04:51:50.145Z,-0.65
2017-01-16T04:52:30.804Z,-0.67
2017-01-16T04:53:11.464Z,-0.65
2017-01-16T04:53:52.116Z,-0.62
2017-01-16T04:54:32.762Z,-0.65
2017-01-16T04:55:13.353Z,-0.7
2017-01-16T04:55:53.951Z,-0.64
2017-01-16T04:56:34.532Z,-0.61
2017-01-16T04:57:15.178Z,-0.65
2017-01-16T04:57:55.771Z,-0.67
2017-01-16T04:58:36.366Z,-0.64
2017-01-16T04:59:16.929Z,-0.67
2017-01-16T04:59:57.574Z,-0.62
2017-01-16T05:00:38.364Z,-0.64
2017-01-16T05:01:18.882Z,-0.64
2017-01-16T05:01:59.430Z,-0.64
2017-01-16T05:02:40.100Z,-0.7
2017-01-16T05:03:20.684Z,-0.67
2017-01-16T05:04:01.275Z,-0.64
2017-01-16T05:04:41.936Z,-0.67
2017-01-16T05:05:22.580Z,-0.64
2017-01-16T05:06:03.232Z,-0.67
2017-01-16T05:06:43.886Z,-0.65
2017-01-16T05:07:24.542Z,-0.64
2017-01-16T05:08:06.219Z,-0.68
2017-01-16T05:08:46.876Z,-0.71
2017-01-16T05:09:27.530Z,-0.64
2017-01-16T05:10:08.174Z,-0.65
2017-01-16T05:10:48.829Z,-0.7
2017-01-16T05:11:29.481Z,-0.59
2017-01-16T05:12:10.142Z,-0.64
2017-01-16T05:12:50.788Z,-0.7
2017-01-16T05:13:31.441Z,-0.7
2017-01-16T05:14:12.093Z,-0.71
2017-01-16T05:14:52.659Z,-0.7
2017-01-16T05:15:33.319Z,-0.7
2017-01-16T05:16:13.985Z,-0.7
2017-01-16T05:16:54.637Z,-0.68
2017-01-16T05:17:35.274Z,-0.61
2017-01-16T05:18:15.926Z,-0.71
2017-01-16T05:18:56.575Z,-0.62
2017-01-16T05:19:37.242Z,-0.64
2017-01-16T05:20:17.834Z,-0.59
2017-01-16T05:20:58.433Z,-0.61
2017-01-16T05:21:39.008Z,-0.67
2017-01-16T05:22:19.729Z,-0.68
2017-01-16T05:23:00.330Z,-0.65
2017-01-16T05:23:40.935Z,-0.67
2017-01-16T05:24:21.483Z,-0.64
2017-01-16T05:25:02.156Z,-0.64
2017-01-16T05:25:42.811Z,-0.7
2017-01-16T05:26:23.460Z,-0.65
2017-01-16T05:27:04.134Z,-0.61
2017-01-16T05:27:44.763Z,-0.7
2017-01-16T05:28:25.411Z,-0.65
2017-01-16T05:29:06.078Z,-0.62
2017-01-16T05:29:46.740Z,-0.68
2017-01-16T05:30:27.373Z,-0.71
2017-01-16T05:31:08.012Z,-0.72
2017-01-16T05:31:48.682Z,-0.7
2017-01-16T05:32:29.349Z,-0.64
2017-01-16T05:33:09.981Z,-0.64
2017-01-16T05:33:50.643Z,-0.68
2017-01-16T05:34:31.293Z,-0.59
2017-01-16T05:35:11.886Z,-0.61
2017-01-16T05:35:52.582Z,-0.62
2017-01-16T05:36:33.150Z,-0.65
2017-01-16T05:37:13.801Z,-0.65
2017-01-16T05:37:54.502Z,-0.67
2017-01-16T05:38:35.090Z,-0.59
2017-01-16T05:39:15.670Z,-0.57
2017-01-16T05:39:56.306Z,-0.65
2017-01-16T05:40:36.963Z,-0.61
2017-01-16T05:41:17.604Z,-0.65
2017-01-16T05:41:58.259Z,-0.64
2017-01-16T05:42:39.852Z,-0.56
2017-01-16T05:43:20.496Z,-0.65
2017-01-16T05:44:01.142Z,-0.61
2017-01-16T05:44:41.820Z,-0.61
2017-01-16T05:45:22.410Z,-0.61
2017-01-16T05:46:02.997Z,-0.61
2017-01-16T05:46:44.674Z,-0.64
2017-01-16T05:47:25.333Z,-0.61
2017-01-16T05:48:06.905Z,-0.59
2017-01-16T05:48:47.551Z,-0.65
2017-01-16T05:49:28.210Z,-0.64
2017-01-16T05:50:08.840Z,-0.62
2017-01-16T05:50:49.504Z,-0.61
2017-01-16T05:51:30.064Z,-0.61
2017-01-16T05:52:10.710Z,-0.68
2017-01-16T05:52:52.293Z,-0.62
2017-01-16T05:53:32.896Z,-0.64
2017-01-16T05:54:13.454Z,-0.59
2017-01-16T05:54:55.054Z,-0.65
2017-01-16T05:55:40.602Z,-0.64
2017-01-16T05:56:21.259Z,-0.64
2017-01-16T05:57:01.914Z,-0.68
2017-01-16T05:57:42.549Z,-0.65
2017-01-16T05:58:23.257Z,-0.61
2017-01-16T05:59:03.842Z,-0.61
2017-01-16T05:59:44.525Z,-0.65
2017-01-16T06:00:37.046Z,-0.64
2017-01-16T06:01:17.705Z,-0.67
2017-01-16T06:01:58.357Z,-0.65
2017-01-16T06:02:39.017Z,-0.65
2017-01-16T06:03:20.683Z,-0.65
2017-01-16T06:04:07.062Z,-0.64
2017-01-16T06:04:49.759Z,-0.61
2017-01-16T06:05:30.328Z,-0.61
2017-01-16T06:06:10.989Z,-0.64
2017-01-16T06:06:51.615Z,-0.57
2017-01-16T06:07:32.179Z,-0.64
2017-01-16T06:08:13.916Z,-0.56
2017-01-16T06:08:54.490Z,-0.65
2017-01-16T06:09:35.062Z,-0.62
2017-01-16T06:10:16.743Z,-0.57
2017-01-16T06:10:58.354Z,-0.59
2017-01-16T06:11:39.972Z,-0.61
2017-01-16T06:12:20.542Z,-0.61
2017-01-16T06:13:01.263Z,-0.61
2017-01-16T06:13:41.806Z,-0.59
2017-01-16T06:14:23.405Z,-0.64
2017-01-16T06:15:03.976Z,-0.61
2017-01-16T06:15:44.632Z,-0.61
2017-01-16T06:16:25.253Z,-0.61
2017-01-16T06:17:05.820Z,-0.56
2017-01-16T06:17:46.488Z,-0.64
2017-01-16T06:18:27.113Z,-0.61
2017-01-16T06:19:07.700Z,-0.67
2017-01-16T06:19:48.336Z,-0.61
2017-01-16T06:20:30.972Z,-0.57
2017-01-16T06:21:11.572Z,-0.59
2017-01-16T06:21:52.145Z,-0.65
2017-01-16T06:22:39.549Z,-0.56
2017-01-16T06:23:20.140Z,-0.64
2017-01-16T06:24:00.732Z,-0.53
2017-01-16T06:24:41.301Z,-0.65
2017-01-16T06:25:21.961Z,-0.54
2017-01-16T06:26:03.634Z,-0.59
2017-01-16T06:26:44.293Z,-0.57
2017-01-16T06:27:25.961Z,-0.57
2017-01-16T06:28:06.615Z,-0.67
2017-01-16T06:28:47.274Z,-0.57
2017-01-16T06:29:27.920Z,-0.56
2017-01-16T06:30:08.612Z,-0.56
2017-01-16T06:30:51.281Z,-0.54
2017-01-16T06:31:32.952Z,-0.61
2017-01-16T06:32:14.644Z,-0.56
2017-01-16T06:32:56.316Z,-0.62
2017-01-16T06:33:36.960Z,-0.65
2017-01-16T06:34:17.609Z,-0.65
2017-01-16T06:34:59.186Z,-0.57
2017-01-16T06:35:39.766Z,-0.57
2017-01-16T06:36:21.420Z,-0.62
2017-01-16T06:37:02.073Z,-0.62
2017-01-16T06:37:42.731Z,-0.62
2017-01-16T06:38:23.368Z,-0.57
2017-01-16T06:39:05.996Z,-0.52
2017-01-16T06:39:47.652Z,-0.53
2017-01-16T06:40:28.283Z,-0.62
2017-01-16T06:41:08.848Z,-0.53
2017-01-16T06:41:49.493Z,-0.57
2017-01-16T06:42:30.140Z,-0.53
2017-01-16T06:43:10.726Z,-0.57
2017-01-16T06:43:51.425Z,-0.62
2017-01-16T06:44:32.102Z,-0.53
2017-01-16T06:45:12.668Z,-0.49
2017-01-16T06:45:53.356Z,-0.56
2017-01-16T06:46:34.015Z,-0.57
2017-01-16T06:47:14.610Z,-0.54
2017-01-16T06:47:55.179Z,-0.53
2017-01-16T06:48:35.876Z,-0.5
2017-01-16T06:49:17.547Z,-0.53
2017-01-16T06:49:58.138Z,-0.57
2017-01-16T06:50:38.688Z,-0.61
2017-01-16T06:51:19.443Z,-0.53
2017-01-16T06:51:59.946Z,-0.53
2017-01-16T06:52:40.648Z,-0.54
2017-01-16T06:53:21.211Z,-0.59
2017-01-16T06:54:01.873Z,-0.57
2017-01-16T06:54:44.535Z,-0.54
2017-01-16T06:55:27.226Z,-0.5
2017-01-16T06:56:08.881Z,-0.53
2017-01-16T06:56:49.560Z,-0.53
2017-01-16T06:57:31.216Z,-0.53
2017-01-16T06:58:11.865Z,-0.5
2017-01-16T06:58:53.547Z,-0.56
2017-01-16T06:59:34.205Z,-0.65
2017-01-16T07:00:16.810Z,-0.57
2017-01-16T07:00:59.394Z,-0.56
2017-01-16T07:01:41.071Z,-0.57
2017-01-16T07:02:21.729Z,-0.64
2017-01-16T07:03:02.408Z,-0.62
2017-01-16T07:03:43.033Z,-0.56
2017-01-16T07:04:25.643Z,-0.62
2017-01-16T07:05:06.284Z,-0.61
2017-01-16T07:05:47.009Z,-0.65
2017-01-16T07:06:27.587Z,-0.64
2017-01-16T07:07:08.241Z,-0.61
2017-01-16T07:07:48.897Z,-0.54
2017-01-16T07:08:31.489Z,-0.52
2017-01-16T07:09:12.148Z,-0.52
2017-01-16T07:09:52.745Z,-0.53
2017-01-16T07:10:33.322Z,-0.57
2017-01-16T07:11:15.006Z,-0.54
2017-01-16T07:11:55.572Z,-0.52
2017-01-16T07:12:36.195Z,-0.62
2017-01-16T07:13:16.775Z,-0.57
2017-01-16T07:13:57.381Z,-0.54
2017-01-16T07:14:37.999Z,-0.49
2017-01-16T07:15:18.632Z,-0.56
2017-01-16T07:16:01.230Z,-0.53
2017-01-16T07:16:41.886Z,-0.56
2017-01-16T07:17:22.544Z,-0.59
2017-01-16T07:18:03.197Z,-0.53
2017-01-16T07:18:43.854Z,-0.54
2017-01-16T07:19:24.494Z,-0.59
2017-01-16T07:20:05.163Z,-0.56
2017-01-16T07:20:46.826Z,-0.47
2017-01-16T07:21:28.503Z,-0.56
2017-01-16T07:22:09.173Z,-0.54
2017-01-16T07:22:49.814Z,-0.56
2017-01-16T07:23:32.406Z,-0.53
2017-01-16T07:24:13.063Z,-0.52
2017-01-16T07:24:54.644Z,-0.53
2017-01-16T07:25:36.316Z,-0.56
2017-01-16T07:26:16.975Z,-0.53
2017-01-16T07:26:57.624Z,-0.56
2017-01-16T07:27:43.901Z,-0.54
2017-01-16T07:28:25.474Z,-0.52
2017-01-16T07:29:10.841Z,-0.54
2017-01-16T07:29:52.635Z,-0.59
2017-01-16T07:30:35.335Z,-0.53
2017-01-16T07:31:15.938Z,-0.59
2017-01-16T07:31:56.588Z,-0.56
2017-01-16T07:32:38.268Z,-0.53
2017-01-16T07:33:23.528Z,-0.59
2017-01-16T07:34:04.181Z,-0.53
2017-01-16T07:34:45.863Z,-0.56
2017-01-16T07:35:26.498Z,-0.61
2017-01-16T07:36:08.109Z,-0.54
2017-01-16T07:36:48.751Z,-0.56
2017-01-16T07:37:31.348Z,-0.43
2017-01-16T07:38:17.563Z,-0.56
2017-01-16T07:39:00.209Z,-0.61
2017-01-16T07:39:45.584Z,-0.5
2017-01-16T07:40:26.219Z,-0.54
2017-01-16T07:41:06.900Z,-0.53
2017-01-16T07:41:52.553Z,-0.56
2017-01-16T07:42:39.081Z,-0.56
2017-01-16T07:43:19.699Z,-0.56
2017-01-16T07:44:02.296Z,-0.44
2017-01-16T07:44:42.943Z,-0.47
2017-01-16T07:45:24.565Z,-0.56
2017-01-16T07:46:05.171Z,-0.56
2017-01-16T07:46:45.717Z,-0.54
2017-01-16T07:47:26.407Z,-0.56
2017-01-16T07:48:07.001Z,-0.56
2017-01-16T07:48:47.567Z,-0.44
2017-01-16T07:49:28.129Z,-0.56
2017-01-16T07:50:09.711Z,-0.57
2017-01-16T07:50:51.287Z,-0.53
2017-01-16T07:51:31.932Z,-0.47
2017-01-16T07:52:13.625Z,-0.53
2017-01-16T07:52:59.068Z,-0.56
2017-01-16T07:53:39.887Z,-0.52
2017-01-16T07:54:21.552Z,-0.52
2017-01-16T07:55:02.173Z,-0.52
2017-01-16T07:55:42.820Z,-0.56
2017-01-16T07:56:23.481Z,-0.53
2017-01-16T07:57:06.162Z,-0.56
2017-01-16T07:57:48.781Z,-0.56
2017-01-16T07:58:29.521Z,-0.54
2017-01-16T07:59:10.206Z,-0.46
2017-01-16T07:59:51.948Z,-0.46
2017-01-16T08:00:32.523Z,-0.49
2017-01-16T08:01:13.176Z,-0.52
2017-01-16T08:01:54.830Z,-0.47
2017-01-16T08:02:36.414Z,-0.44
2017-01-16T08:03:17.107Z,-0.49
2017-01-16T08:03:57.827Z,-0.36
2017-01-16T08:04:39.391Z,-0.46
2017-01-16T08:05:20.041Z,-0.5
2017-01-16T08:06:05.625Z,-0.39
2017-01-16T08:06:46.292Z,-0.5
2017-01-16T08:07:28.024Z,-0.36
2017-01-16T08:08:08.600Z,-0.35
2017-01-16T08:08:54.059Z,-0.34
2017-01-16T08:09:35.730Z,-0.38
2017-01-16T08:10:21.293Z,-0.39
2017-01-16T08:11:01.853Z,-0.38
2017-01-16T08:11:42.503Z,-0.29
2017-01-16T08:12:24.181Z,-0.31
2017-01-16T08:13:04.734Z,-0.31
2017-01-16T08:13:46.412Z,-0.36
2017-01-16T08:14:28.082Z,-0.35
2017-01-16T08:15:08.732Z,-0.32
2017-01-16T08:15:49.293Z,-0.35
2017-01-16T08:16:29.958Z,-0.29
2017-01-16T08:17:10.608Z,-0.31
2017-01-16T08:17:51.251Z,-0.41
2017-01-16T08:18:31.962Z,-0.26
2017-01-16T08:19:13.586Z,-0.32
2017-01-16T08:19:54.238Z,-0.32
2017-01-16T08:20:34.889Z,-0.28
2017-01-16T08:21:15.550Z,-0.34
2017-01-16T08:21:56.181Z,-0.31
2017-01-16T08:22:36.851Z,-0.36
2017-01-16T08:23:17.488Z,-0.38
2017-01-16T08:23:59.182Z,-0.28
2017-01-16T08:24:39.923Z,-0.36
2017-01-16T08:25:21.545Z,-0.31
2017-01-16T08:26:02.143Z,-0.34
2017-01-16T08:26:42.717Z,-0.31
2017-01-16T08:27:23.366Z,-0.26
2017-01-16T08:28:04.054Z,-0.28
2017-01-16T08:28:44.759Z,-0.28
2017-01-16T08:29:25.322Z,-0.23
2017-01-16T08:30:07.019Z,-0.28
2017-01-16T08:30:47.643Z,-0.32
2017-01-16T08:31:28.321Z,-0.28
2017-01-16T08:32:08.953Z,-0.26
2017-01-16T08:32:50.624Z,-0.29
2017-01-16T08:33:32.305Z,-0.25
2017-01-16T08:34:14.007Z,-0.2
2017-01-16T08:34:55.651Z,-0.29
2017-01-16T08:35:36.373Z,-0.26
2017-01-16T08:36:19.106Z,-0.25
2017-01-16T08:37:04.594Z,-0.26
2017-01-16T08:37:45.251Z,-0.25
2017-01-16T08:38:25.886Z,-0.25
2017-01-16T08:39:06.573Z,-0.28
2017-01-16T08:39:47.192Z,-0.23
2017-01-16T08:40:32.565Z,-0.18
2017-01-16T08:41:13.234Z,-0.2
2017-01-16T08:41:54.905Z,-0.2
2017-01-16T08:42:35.536Z,-0.23
2017-01-16T08:43:16.137Z,-0.23
2017-01-16T08:43:57.816Z,-0.17
2017-01-16T08:44:40.418Z,-0.28
2017-01-16T08:45:22.092Z,-0.28
2017-01-16T08:46:02.718Z,-0.28
2017-01-16T08:46:43.356Z,-0.23
2017-01-16T08:47:24.037Z,-0.18
2017-01-16T08:48:04.786Z,-0.26